sensor_id;sensor_type;location;lat;lon;timestamp;temperature;humidity
17807;DHT22;9027;48.938;9.182;2022-12-16T00:00:28;0.00;99.90
17807;DHT22;9027;48.938;9.182;2022-12-16T00:01:59;0.00;99.90
17807;DHT22;9027;48.938;9.182;2022-12-16T00:03:31;0.00;99.90
17807;DHT22;9027;48.938;9.182;2022-12-16T00:05:03;0.00;99.90
17807;DHT22;9027;48.938;9.182;2022-12-16T00:06:35;0.00;99.90
17807;DHT22;9027;48.938;9.182;2022-12-16T00:08:07;0.00;99.90
17807;DHT22;9027;48.938;9.182;2022-12-16T00:09:39;0.10;99.90
17807;DHT22;9027;48.938;9.182;2022-12-16T00:11:12;0.10;99.90
17807;DHT22;9027;48.938;9.182;2022-12-16T00:12:43;0.10;99.90
17807;DHT22;9027;48.938;9.182;2022-12-16T00:14:15;0.20;99.90
17807;DHT22;9027;48.938;9.182;2022-12-16T00:15:47;0.20;99.90
17807;DHT22;9027;48.938;9.182;2022-12-16T00:17:18;0.20;99.90
17807;DHT22;9027;48.938;9.182;2022-12-16T00:18:50;0.30;99.90
17807;DHT22;9027;48.938;9.182;2022-12-16T00:20:22;0.30;99.90
17807;DHT22;9027;48.938;9.182;2022-12-16T00:21:53;0.30;99.90
17807;DHT22;9027;48.938;9.182;2022-12-16T00:23:26;0.20;99.90
17807;DHT22;9027;48.938;9.182;2022-12-16T00:24:58;0.30;99.90
17807;DHT22;9027;48.938;9.182;2022-12-16T00:26:31;0.30;99.90
17807;DHT22;9027;48.938;9.182;2022-12-16T00:28:03;0.40;99.90
17807;DHT22;9027;48.938;9.182;2022-12-16T00:29:35;0.40;99.90
17807;DHT22;9027;48.938;9.182;2022-12-16T00:31:07;0.40;99.90
17807;DHT22;9027;48.938;9.182;2022-12-16T00:32:39;0.50;99.90
17807;DHT22;9027;48.938;9.182;2022-12-16T00:34:11;0.40;99.90
17807;DHT22;9027;48.938;9.182;2022-12-16T00:35:44;0.40;99.90
17807;DHT22;9027;48.938;9.182;2022-12-16T00:37:14;0.50;99.90
17807;DHT22;9027;48.938;9.182;2022-12-16T00:38:46;0.50;99.90
17807;DHT22;9027;48.938;9.182;2022-12-16T00:40:18;0.60;99.90
17807;DHT22;9027;48.938;9.182;2022-12-16T00:41:50;0.60;99.90
17807;DHT22;9027;48.938;9.182;2022-12-16T00:43:22;0.60;99.90
17807;DHT22;9027;48.938;9.182;2022-12-16T00:44:54;0.60;99.90
17807;DHT22;9027;48.938;9.182;2022-12-16T00:46:26;0.60;99.90
17807;DHT22;9027;48.938;9.182;2022-12-16T00:47:58;0.50;99.90
17807;DHT22;9027;48.938;9.182;2022-12-16T00:49:30;0.50;99.90
17807;DHT22;9027;48.938;9.182;2022-12-16T00:51:01;0.50;99.90
17807;DHT22;9027;48.938;9.182;2022-12-16T00:52:33;0.50;99.90
17807;DHT22;9027;48.938;9.182;2022-12-16T00:54:05;0.40;99.90
17807;DHT22;9027;48.938;9.182;2022-12-16T00:55:37;0.30;99.90
17807;DHT22;9027;48.938;9.182;2022-12-16T00:57:09;0.40;99.90
17807;DHT22;9027;48.938;9.182;2022-12-16T00:58:41;0.40;99.90
17807;DHT22;9027;48.938;9.182;2022-12-16T01:00:15;0.50;99.90
17807;DHT22;9027;48.938;9.182;2022-12-16T01:01:47;0.40;99.90
17807;DHT22;9027;48.938;9.182;2022-12-16T01:03:19;0.50;99.90
17807;DHT22;9027;48.938;9.182;2022-12-16T01:04:51;0.50;99.90
17807;DHT22;9027;48.938;9.182;2022-12-16T01:06:23;0.50;99.90
17807;DHT22;9027;48.938;9.182;2022-12-16T01:07:55;0.50;99.90
17807;DHT22;9027;48.938;9.182;2022-12-16T01:09:26;0.50;99.90
17807;DHT22;9027;48.938;9.182;2022-12-16T01:10:58;0.50;99.90
17807;DHT22;9027;48.938;9.182;2022-12-16T01:12:31;0.50;99.90
17807;DHT22;9027;48.938;9.182;2022-12-16T01:14:02;0.50;99.90
17807;DHT22;9027;48.938;9.182;2022-12-16T01:15:36;0.50;99.90
17807;DHT22;9027;48.938;9.182;2022-12-16T01:17:07;0.50;99.90
17807;DHT22;9027;48.938;9.182;2022-12-16T01:18:39;0.40;99.90
17807;DHT22;9027;48.938;9.182;2022-12-16T01:20:11;0.40;99.90
17807;DHT22;9027;48.938;9.182;2022-12-16T01:21:43;0.50;99.90
17807;DHT22;9027;48.938;9.182;2022-12-16T01:23:15;0.50;99.90
17807;DHT22;9027;48.938;9.182;2022-12-16T01:24:47;0.50;99.90
17807;DHT22;9027;48.938;9.182;2022-12-16T01:26:19;0.50;99.90
17807;DHT22;9027;48.938;9.182;2022-12-16T01:27:52;0.30;99.90
17807;DHT22;9027;48.938;9.182;2022-12-16T01:29:24;0.30;99.90
17807;DHT22;9027;48.938;9.182;2022-12-16T01:30:57;0.30;99.90
17807;DHT22;9027;48.938;9.182;2022-12-16T01:32:31;0.30;99.90
17807;DHT22;9027;48.938;9.182;2022-12-16T01:34:03;0.40;99.90
17807;DHT22;9027;48.938;9.182;2022-12-16T01:35:34;0.30;99.90
17807;DHT22;9027;48.938;9.182;2022-12-16T01:37:08;0.20;99.90
17807;DHT22;9027;48.938;9.182;2022-12-16T01:38:42;0.20;99.90
17807;DHT22;9027;48.938;9.182;2022-12-16T01:40:16;0.30;99.90
17807;DHT22;9027;48.938;9.182;2022-12-16T01:41:48;0.20;99.90
17807;DHT22;9027;48.938;9.182;2022-12-16T01:43:24;0.30;99.90
17807;DHT22;9027;48.938;9.182;2022-12-16T01:44:56;0.30;99.90
17807;DHT22;9027;48.938;9.182;2022-12-16T01:46:50;0.20;99.90
17807;DHT22;9027;48.938;9.182;2022-12-16T01:48:31;0.20;99.90
17807;DHT22;9027;48.938;9.182;2022-12-16T01:50:08;0.30;99.90
17807;DHT22;9027;48.938;9.182;2022-12-16T01:51:43;0.30;99.90
17807;DHT22;9027;48.938;9.182;2022-12-16T01:53:15;0.20;99.90
17807;DHT22;9027;48.938;9.182;2022-12-16T01:54:49;0.20;99.90
17807;DHT22;9027;48.938;9.182;2022-12-16T01:56:23;0.20;99.90
17807;DHT22;9027;48.938;9.182;2022-12-16T01:58:00;0.30;99.90
17807;DHT22;9027;48.938;9.182;2022-12-16T01:59:36;0.30;99.90
17807;DHT22;9027;48.938;9.182;2022-12-16T02:01:09;0.40;99.90
17807;DHT22;9027;48.938;9.182;2022-12-16T02:02:42;0.30;99.90
17807;DHT22;9027;48.938;9.182;2022-12-16T02:04:15;0.30;99.90
17807;DHT22;9027;48.938;9.182;2022-12-16T02:05:47;0.30;99.90
17807;DHT22;9027;48.938;9.182;2022-12-16T02:07:18;0.30;99.90
17807;DHT22;9027;48.938;9.182;2022-12-16T02:08:55;0.40;99.90
17807;DHT22;9027;48.938;9.182;2022-12-16T02:10:35;0.50;99.90
17807;DHT22;9027;48.938;9.182;2022-12-16T02:12:18;0.50;99.90
17807;DHT22;9027;48.938;9.182;2022-12-16T02:14:18;0.50;99.90
17807;DHT22;9027;48.938;9.182;2022-12-16T02:16:03;0.40;99.90
17807;DHT22;9027;48.938;9.182;2022-12-16T02:17:42;0.50;99.90
17807;DHT22;9027;48.938;9.182;2022-12-16T02:19:43;0.50;99.90
17807;DHT22;9027;48.938;9.182;2022-12-16T02:21:43;0.50;99.90
17807;DHT22;9027;48.938;9.182;2022-12-16T02:23:45;0.30;99.90
17807;DHT22;9027;48.938;9.182;2022-12-16T02:27:48;0.30;99.90
17807;DHT22;9027;48.938;9.182;2022-12-16T02:29:36;0.30;99.90
17807;DHT22;9027;48.938;9.182;2022-12-16T02:31:23;0.30;99.90
17807;DHT22;9027;48.938;9.182;2022-12-16T02:33:09;0.40;99.90
17807;DHT22;9027;48.938;9.182;2022-12-16T02:34:49;0.40;99.90
17807;DHT22;9027;48.938;9.182;2022-12-16T02:36:31;0.40;99.90
17807;DHT22;9027;48.938;9.182;2022-12-16T02:38:12;0.50;99.90
17807;DHT22;9027;48.938;9.182;2022-12-16T02:39:49;0.40;99.90
17807;DHT22;9027;48.938;9.182;2022-12-16T02:41:26;0.30;99.90
17807;DHT22;9027;48.938;9.182;2022-12-16T02:43:06;0.20;99.90
17807;DHT22;9027;48.938;9.182;2022-12-16T02:44:42;0.20;99.90
17807;DHT22;9027;48.938;9.182;2022-12-16T02:46:16;0.20;99.90
17807;DHT22;9027;48.938;9.182;2022-12-16T02:47:50;0.10;99.90
17807;DHT22;9027;48.938;9.182;2022-12-16T02:49:45;0.20;99.90
17807;DHT22;9027;48.938;9.182;2022-12-16T02:51:17;0.20;99.90
17807;DHT22;9027;48.938;9.182;2022-12-16T02:52:50;0.10;99.90
17807;DHT22;9027;48.938;9.182;2022-12-16T02:54:23;0.00;99.90
17807;DHT22;9027;48.938;9.182;2022-12-16T02:56:00;-0.10;99.90
17807;DHT22;9027;48.938;9.182;2022-12-16T02:57:57;0.00;99.90
17807;DHT22;9027;48.938;9.182;2022-12-16T02:59:36;-0.10;99.90
17807;DHT22;9027;48.938;9.182;2022-12-16T03:01:18;-0.10;99.90
17807;DHT22;9027;48.938;9.182;2022-12-16T03:02:56;-0.10;99.90
17807;DHT22;9027;48.938;9.182;2022-12-16T03:04:35;-0.10;99.90
17807;DHT22;9027;48.938;9.182;2022-12-16T03:06:10;0.00;99.90
17807;DHT22;9027;48.938;9.182;2022-12-16T03:07:44;0.20;99.90
17807;DHT22;9027;48.938;9.182;2022-12-16T03:09:21;0.30;99.90
17807;DHT22;9027;48.938;9.182;2022-12-16T03:10:57;0.40;99.90
17807;DHT22;9027;48.938;9.182;2022-12-16T03:12:31;0.40;99.90
17807;DHT22;9027;48.938;9.182;2022-12-16T03:14:04;0.50;99.90
17807;DHT22;9027;48.938;9.182;2022-12-16T03:15:38;0.50;99.90
17807;DHT22;9027;48.938;9.182;2022-12-16T03:17:12;0.50;99.90
17807;DHT22;9027;48.938;9.182;2022-12-16T03:18:48;0.50;99.90
17807;DHT22;9027;48.938;9.182;2022-12-16T03:20:26;0.60;99.90
17807;DHT22;9027;48.938;9.182;2022-12-16T03:22:00;0.60;99.90
17807;DHT22;9027;48.938;9.182;2022-12-16T03:23:38;0.60;99.90
17807;DHT22;9027;48.938;9.182;2022-12-16T03:25:11;0.60;99.90
17807;DHT22;9027;48.938;9.182;2022-12-16T03:26:52;0.50;99.90
17807;DHT22;9027;48.938;9.182;2022-12-16T03:28:34;0.40;99.90
17807;DHT22;9027;48.938;9.182;2022-12-16T03:30:12;0.40;99.90
17807;DHT22;9027;48.938;9.182;2022-12-16T03:31:48;0.20;99.90
17807;DHT22;9027;48.938;9.182;2022-12-16T03:33:25;0.10;99.90
17807;DHT22;9027;48.938;9.182;2022-12-16T03:35:04;0.10;99.90
17807;DHT22;9027;48.938;9.182;2022-12-16T03:36:42;0.10;99.90
17807;DHT22;9027;48.938;9.182;2022-12-16T03:38:17;0.10;99.90
17807;DHT22;9027;48.938;9.182;2022-12-16T03:39:52;0.10;99.90
17807;DHT22;9027;48.938;9.182;2022-12-16T03:41:25;0.20;99.90
17807;DHT22;9027;48.938;9.182;2022-12-16T03:43:00;0.30;99.90
17807;DHT22;9027;48.938;9.182;2022-12-16T03:44:34;0.40;99.90
17807;DHT22;9027;48.938;9.182;2022-12-16T03:46:06;0.40;99.90
17807;DHT22;9027;48.938;9.182;2022-12-16T03:47:40;0.30;99.90
17807;DHT22;9027;48.938;9.182;2022-12-16T03:49:12;0.40;99.90
17807;DHT22;9027;48.938;9.182;2022-12-16T03:50:45;0.40;99.90
17807;DHT22;9027;48.938;9.182;2022-12-16T03:52:17;0.30;99.90
17807;DHT22;9027;48.938;9.182;2022-12-16T03:53:48;0.40;99.90
17807;DHT22;9027;48.938;9.182;2022-12-16T03:55:20;0.30;99.90
17807;DHT22;9027;48.938;9.182;2022-12-16T03:56:52;0.30;99.90
17807;DHT22;9027;48.938;9.182;2022-12-16T03:58:24;0.20;99.90
17807;DHT22;9027;48.938;9.182;2022-12-16T03:59:55;0.20;99.90
17807;DHT22;9027;48.938;9.182;2022-12-16T04:01:27;0.20;99.90
17807;DHT22;9027;48.938;9.182;2022-12-16T04:02:58;0.10;99.90
17807;DHT22;9027;48.938;9.182;2022-12-16T04:04:30;0.10;99.90
17807;DHT22;9027;48.938;9.182;2022-12-16T04:06:04;0.20;99.90
17807;DHT22;9027;48.938;9.182;2022-12-16T04:07:36;0.30;99.90
17807;DHT22;9027;48.938;9.182;2022-12-16T04:09:07;0.40;99.90
17807;DHT22;9027;48.938;9.182;2022-12-16T04:10:39;0.40;99.90
17807;DHT22;9027;48.938;9.182;2022-12-16T04:12:28;0.50;99.90
17807;DHT22;9027;48.938;9.182;2022-12-16T04:14:18;0.40;99.90
17807;DHT22;9027;48.938;9.182;2022-12-16T04:16:07;0.50;99.90
17807;DHT22;9027;48.938;9.182;2022-12-16T04:17:57;0.50;99.90
17807;DHT22;9027;48.938;9.182;2022-12-16T04:19:47;0.40;99.90
17807;DHT22;9027;48.938;9.182;2022-12-16T04:21:38;0.40;99.90
17807;DHT22;9027;48.938;9.182;2022-12-16T04:23:28;0.40;99.90
17807;DHT22;9027;48.938;9.182;2022-12-16T04:25:20;0.40;99.90
17807;DHT22;9027;48.938;9.182;2022-12-16T04:26:52;0.50;99.90
17807;DHT22;9027;48.938;9.182;2022-12-16T04:28:41;0.60;99.90
17807;DHT22;9027;48.938;9.182;2022-12-16T04:30:14;0.60;99.90
17807;DHT22;9027;48.938;9.182;2022-12-16T04:31:51;0.60;99.90
17807;DHT22;9027;48.938;9.182;2022-12-16T04:33:23;0.60;99.90
17807;DHT22;9027;48.938;9.182;2022-12-16T04:35:13;0.60;99.90
17807;DHT22;9027;48.938;9.182;2022-12-16T04:37:01;0.60;99.90
17807;DHT22;9027;48.938;9.182;2022-12-16T04:38:51;0.70;99.90
17807;DHT22;9027;48.938;9.182;2022-12-16T04:40:40;0.70;99.90
17807;DHT22;9027;48.938;9.182;2022-12-16T04:42:30;0.70;99.90
17807;DHT22;9027;48.938;9.182;2022-12-16T04:44:16;0.70;99.90
17807;DHT22;9027;48.938;9.182;2022-12-16T04:46:06;0.70;99.90
17807;DHT22;9027;48.938;9.182;2022-12-16T04:47:55;0.70;99.90
17807;DHT22;9027;48.938;9.182;2022-12-16T04:49:44;0.80;99.90
17807;DHT22;9027;48.938;9.182;2022-12-16T04:51:34;0.70;99.90
17807;DHT22;9027;48.938;9.182;2022-12-16T04:53:25;0.70;99.90
17807;DHT22;9027;48.938;9.182;2022-12-16T04:55:14;0.70;99.90
17807;DHT22;9027;48.938;9.182;2022-12-16T04:57:04;0.70;99.90
17807;DHT22;9027;48.938;9.182;2022-12-16T04:58:53;0.70;99.90
17807;DHT22;9027;48.938;9.182;2022-12-16T05:00:42;0.70;99.90
17807;DHT22;9027;48.938;9.182;2022-12-16T05:02:32;0.80;99.90
17807;DHT22;9027;48.938;9.182;2022-12-16T05:04:21;0.80;99.90
17807;DHT22;9027;48.938;9.182;2022-12-16T05:06:11;0.90;99.90
17807;DHT22;9027;48.938;9.182;2022-12-16T05:08:00;0.90;99.90
17807;DHT22;9027;48.938;9.182;2022-12-16T05:09:50;0.80;99.90
17807;DHT22;9027;48.938;9.182;2022-12-16T05:11:40;0.70;99.90
17807;DHT22;9027;48.938;9.182;2022-12-16T05:13:29;0.60;99.90
17807;DHT22;9027;48.938;9.182;2022-12-16T05:15:19;0.70;99.90
17807;DHT22;9027;48.938;9.182;2022-12-16T05:17:08;0.70;99.90
17807;DHT22;9027;48.938;9.182;2022-12-16T05:18:57;0.70;99.90
17807;DHT22;9027;48.938;9.182;2022-12-16T05:20:47;0.80;99.90
17807;DHT22;9027;48.938;9.182;2022-12-16T05:22:36;0.80;99.90
17807;DHT22;9027;48.938;9.182;2022-12-16T05:24:26;0.80;99.90
17807;DHT22;9027;48.938;9.182;2022-12-16T05:26:16;0.80;99.90
17807;DHT22;9027;48.938;9.182;2022-12-16T05:28:05;0.80;99.90
17807;DHT22;9027;48.938;9.182;2022-12-16T05:29:55;0.80;99.90
17807;DHT22;9027;48.938;9.182;2022-12-16T05:31:44;0.90;99.90
17807;DHT22;9027;48.938;9.182;2022-12-16T05:33:33;0.90;99.90
17807;DHT22;9027;48.938;9.182;2022-12-16T05:35:23;0.90;99.90
17807;DHT22;9027;48.938;9.182;2022-12-16T05:37:12;0.90;99.90
17807;DHT22;9027;48.938;9.182;2022-12-16T05:39:07;0.80;99.90
17807;DHT22;9027;48.938;9.182;2022-12-16T05:40:56;0.90;99.90
17807;DHT22;9027;48.938;9.182;2022-12-16T05:42:48;0.90;99.90
17807;DHT22;9027;48.938;9.182;2022-12-16T05:44:37;0.90;99.90
17807;DHT22;9027;48.938;9.182;2022-12-16T05:46:26;0.90;99.90
17807;DHT22;9027;48.938;9.182;2022-12-16T05:48:16;1.00;99.90
17807;DHT22;9027;48.938;9.182;2022-12-16T05:50:02;1.00;99.90
17807;DHT22;9027;48.938;9.182;2022-12-16T05:51:51;1.00;99.90
17807;DHT22;9027;48.938;9.182;2022-12-16T05:53:41;0.90;99.90
17807;DHT22;9027;48.938;9.182;2022-12-16T05:55:30;0.80;99.90
17807;DHT22;9027;48.938;9.182;2022-12-16T05:57:20;0.80;99.90
17807;DHT22;9027;48.938;9.182;2022-12-16T05:59:10;0.70;99.90
17807;DHT22;9027;48.938;9.182;2022-12-16T06:01:00;0.70;99.90
17807;DHT22;9027;48.938;9.182;2022-12-16T06:02:49;0.70;99.90
17807;DHT22;9027;48.938;9.182;2022-12-16T06:04:39;0.60;99.90
17807;DHT22;9027;48.938;9.182;2022-12-16T06:06:28;0.60;99.90
17807;DHT22;9027;48.938;9.182;2022-12-16T06:08:32;0.70;99.90
17807;DHT22;9027;48.938;9.182;2022-12-16T06:10:22;0.70;99.90
17807;DHT22;9027;48.938;9.182;2022-12-16T06:12:11;0.50;99.90
17807;DHT22;9027;48.938;9.182;2022-12-16T06:14:00;0.60;99.90
17807;DHT22;9027;48.938;9.182;2022-12-16T06:15:51;0.60;99.90
17807;DHT22;9027;48.938;9.182;2022-12-16T06:17:41;0.70;99.90
17807;DHT22;9027;48.938;9.182;2022-12-16T06:19:30;0.60;99.90
17807;DHT22;9027;48.938;9.182;2022-12-16T06:21:20;0.50;99.90
17807;DHT22;9027;48.938;9.182;2022-12-16T06:23:10;0.60;99.90
17807;DHT22;9027;48.938;9.182;2022-12-16T06:24:59;0.60;99.90
17807;DHT22;9027;48.938;9.182;2022-12-16T06:26:49;0.60;99.90
17807;DHT22;9027;48.938;9.182;2022-12-16T06:28:38;0.50;99.90
17807;DHT22;9027;48.938;9.182;2022-12-16T06:30:28;0.60;99.90
17807;DHT22;9027;48.938;9.182;2022-12-16T06:32:18;0.50;99.90
17807;DHT22;9027;48.938;9.182;2022-12-16T06:34:08;0.50;99.90
17807;DHT22;9027;48.938;9.182;2022-12-16T06:35:57;0.70;99.90
17807;DHT22;9027;48.938;9.182;2022-12-16T06:37:49;0.80;99.90
17807;DHT22;9027;48.938;9.182;2022-12-16T06:39:38;0.80;99.90
17807;DHT22;9027;48.938;9.182;2022-12-16T06:41:28;0.80;99.90
17807;DHT22;9027;48.938;9.182;2022-12-16T06:43:17;0.80;99.90
17807;DHT22;9027;48.938;9.182;2022-12-16T06:45:07;0.90;99.90
17807;DHT22;9027;48.938;9.182;2022-12-16T06:46:57;0.90;99.90
17807;DHT22;9027;48.938;9.182;2022-12-16T06:48:47;0.80;99.90
17807;DHT22;9027;48.938;9.182;2022-12-16T06:50:37;0.70;99.90
17807;DHT22;9027;48.938;9.182;2022-12-16T06:52:26;0.70;99.90
17807;DHT22;9027;48.938;9.182;2022-12-16T06:54:16;0.70;99.90
17807;DHT22;9027;48.938;9.182;2022-12-16T06:56:16;0.70;99.90
17807;DHT22;9027;48.938;9.182;2022-12-16T06:58:06;0.70;99.90
17807;DHT22;9027;48.938;9.182;2022-12-16T06:59:55;0.60;99.90
17807;DHT22;9027;48.938;9.182;2022-12-16T07:01:45;0.60;99.90
17807;DHT22;9027;48.938;9.182;2022-12-16T07:03:34;0.60;99.90
17807;DHT22;9027;48.938;9.182;2022-12-16T07:05:21;0.70;99.90
17807;DHT22;9027;48.938;9.182;2022-12-16T07:07:11;0.70;99.90
17807;DHT22;9027;48.938;9.182;2022-12-16T07:09:00;0.80;99.90
17807;DHT22;9027;48.938;9.182;2022-12-16T07:10:50;0.70;99.90
17807;DHT22;9027;48.938;9.182;2022-12-16T07:12:39;0.70;99.90
17807;DHT22;9027;48.938;9.182;2022-12-16T07:14:29;0.70;99.90
17807;DHT22;9027;48.938;9.182;2022-12-16T07:16:18;0.70;99.90
17807;DHT22;9027;48.938;9.182;2022-12-16T07:18:07;0.70;99.90
17807;DHT22;9027;48.938;9.182;2022-12-16T07:19:57;0.70;99.90
17807;DHT22;9027;48.938;9.182;2022-12-16T07:21:48;0.60;99.90
17807;DHT22;9027;48.938;9.182;2022-12-16T07:23:37;0.70;99.90
17807;DHT22;9027;48.938;9.182;2022-12-16T07:25:27;0.70;99.90
17807;DHT22;9027;48.938;9.182;2022-12-16T07:27:16;0.60;99.90
17807;DHT22;9027;48.938;9.182;2022-12-16T07:29:05;0.60;99.90
17807;DHT22;9027;48.938;9.182;2022-12-16T07:30:55;0.50;99.90
17807;DHT22;9027;48.938;9.182;2022-12-16T07:32:48;0.60;99.90
17807;DHT22;9027;48.938;9.182;2022-12-16T07:34:37;0.60;99.90
17807;DHT22;9027;48.938;9.182;2022-12-16T07:36:27;0.60;99.90
17807;DHT22;9027;48.938;9.182;2022-12-16T07:38:17;0.50;99.90
17807;DHT22;9027;48.938;9.182;2022-12-16T07:40:08;0.50;99.90
17807;DHT22;9027;48.938;9.182;2022-12-16T07:41:57;0.50;99.90
17807;DHT22;9027;48.938;9.182;2022-12-16T07:43:46;0.30;99.90
17807;DHT22;9027;48.938;9.182;2022-12-16T07:45:36;0.20;99.90
17807;DHT22;9027;48.938;9.182;2022-12-16T07:47:25;0.20;99.90
17807;DHT22;9027;48.938;9.182;2022-12-16T07:49:14;0.20;99.90
17807;DHT22;9027;48.938;9.182;2022-12-16T07:51:04;0.30;99.90
17807;DHT22;9027;48.938;9.182;2022-12-16T07:52:54;0.30;99.90
17807;DHT22;9027;48.938;9.182;2022-12-16T07:54:45;0.30;99.90
17807;DHT22;9027;48.938;9.182;2022-12-16T07:56:34;0.40;99.90
17807;DHT22;9027;48.938;9.182;2022-12-16T07:58:23;0.30;99.90
17807;DHT22;9027;48.938;9.182;2022-12-16T08:00:13;0.10;99.90
17807;DHT22;9027;48.938;9.182;2022-12-16T08:02:03;0.10;99.90
17807;DHT22;9027;48.938;9.182;2022-12-16T08:03:52;0.00;99.90
17807;DHT22;9027;48.938;9.182;2022-12-16T08:05:42;0.00;99.90
17807;DHT22;9027;48.938;9.182;2022-12-16T08:07:31;-0.10;99.90
17807;DHT22;9027;48.938;9.182;2022-12-16T08:09:20;0.00;99.90
17807;DHT22;9027;48.938;9.182;2022-12-16T08:11:11;0.10;99.90
17807;DHT22;9027;48.938;9.182;2022-12-16T08:13:02;0.10;99.90
17807;DHT22;9027;48.938;9.182;2022-12-16T08:14:51;0.00;99.90
17807;DHT22;9027;48.938;9.182;2022-12-16T08:16:41;0.00;99.90
17807;DHT22;9027;48.938;9.182;2022-12-16T08:18:30;0.10;99.90
17807;DHT22;9027;48.938;9.182;2022-12-16T08:20:20;0.20;99.90
17807;DHT22;9027;48.938;9.182;2022-12-16T08:22:10;0.20;99.90
17807;DHT22;9027;48.938;9.182;2022-12-16T08:24:05;0.10;99.90
17807;DHT22;9027;48.938;9.182;2022-12-16T08:25:54;0.20;99.90
17807;DHT22;9027;48.938;9.182;2022-12-16T08:27:45;0.20;99.90
17807;DHT22;9027;48.938;9.182;2022-12-16T08:29:34;0.20;99.90
17807;DHT22;9027;48.938;9.182;2022-12-16T08:31:23;0.20;99.90
17807;DHT22;9027;48.938;9.182;2022-12-16T08:33:13;0.30;99.90
17807;DHT22;9027;48.938;9.182;2022-12-16T08:35:02;0.30;99.90
17807;DHT22;9027;48.938;9.182;2022-12-16T08:36:52;0.20;99.90
17807;DHT22;9027;48.938;9.182;2022-12-16T08:38:41;0.20;99.90
17807;DHT22;9027;48.938;9.182;2022-12-16T08:40:40;0.30;99.90
17807;DHT22;9027;48.938;9.182;2022-12-16T08:42:31;0.40;99.90
17807;DHT22;9027;48.938;9.182;2022-12-16T08:44:22;0.50;99.90
17807;DHT22;9027;48.938;9.182;2022-12-16T08:46:15;0.40;99.90
17807;DHT22;9027;48.938;9.182;2022-12-16T08:48:05;0.40;99.90
17807;DHT22;9027;48.938;9.182;2022-12-16T08:49:55;0.40;99.90
17807;DHT22;9027;48.938;9.182;2022-12-16T08:51:58;0.40;99.90
17807;DHT22;9027;48.938;9.182;2022-12-16T08:53:48;0.30;99.90
17807;DHT22;9027;48.938;9.182;2022-12-16T08:55:37;0.30;99.90
17807;DHT22;9027;48.938;9.182;2022-12-16T08:57:27;0.20;99.90
17807;DHT22;9027;48.938;9.182;2022-12-16T08:59:16;0.00;99.90
17807;DHT22;9027;48.938;9.182;2022-12-16T09:01:07;0.00;99.90
17807;DHT22;9027;48.938;9.182;2022-12-16T09:02:57;0.00;99.90
17807;DHT22;9027;48.938;9.182;2022-12-16T09:04:46;0.10;99.90
17807;DHT22;9027;48.938;9.182;2022-12-16T09:06:35;0.10;99.90
17807;DHT22;9027;48.938;9.182;2022-12-16T09:08:25;0.20;99.90
17807;DHT22;9027;48.938;9.182;2022-12-16T09:10:14;0.20;99.90
17807;DHT22;9027;48.938;9.182;2022-12-16T09:12:04;0.20;99.90
17807;DHT22;9027;48.938;9.182;2022-12-16T09:13:53;0.20;99.90
17807;DHT22;9027;48.938;9.182;2022-12-16T09:15:43;0.30;99.90
17807;DHT22;9027;48.938;9.182;2022-12-16T09:17:34;0.40;99.90
17807;DHT22;9027;48.938;9.182;2022-12-16T09:19:23;0.10;99.90
17807;DHT22;9027;48.938;9.182;2022-12-16T09:21:13;0.10;99.90
17807;DHT22;9027;48.938;9.182;2022-12-16T09:23:03;0.20;99.90
17807;DHT22;9027;48.938;9.182;2022-12-16T09:24:53;0.30;99.90
17807;DHT22;9027;48.938;9.182;2022-12-16T09:26:43;0.30;99.90
17807;DHT22;9027;48.938;9.182;2022-12-16T09:28:32;0.30;99.90
17807;DHT22;9027;48.938;9.182;2022-12-16T09:30:22;0.50;99.90
17807;DHT22;9027;48.938;9.182;2022-12-16T09:32:11;0.50;99.90
17807;DHT22;9027;48.938;9.182;2022-12-16T09:34:02;0.50;99.90
17807;DHT22;9027;48.938;9.182;2022-12-16T09:35:51;0.50;99.90
17807;DHT22;9027;48.938;9.182;2022-12-16T09:37:45;0.60;99.90
17807;DHT22;9027;48.938;9.182;2022-12-16T09:39:34;0.80;99.90
17807;DHT22;9027;48.938;9.182;2022-12-16T09:41:37;0.70;99.90
17807;DHT22;9027;48.938;9.182;2022-12-16T09:43:42;0.90;99.90
17807;DHT22;9027;48.938;9.182;2022-12-16T09:45:43;0.90;99.90
17807;DHT22;9027;48.938;9.182;2022-12-16T09:47:37;0.90;99.90
17807;DHT22;9027;48.938;9.182;2022-12-16T09:49:40;0.90;99.90
17807;DHT22;9027;48.938;9.182;2022-12-16T09:51:33;0.90;99.90
17807;DHT22;9027;48.938;9.182;2022-12-16T09:53:38;0.80;99.90
17807;DHT22;9027;48.938;9.182;2022-12-16T09:55:31;0.70;99.90
17807;DHT22;9027;48.938;9.182;2022-12-16T09:57:21;0.80;99.90
17807;DHT22;9027;48.938;9.182;2022-12-16T09:59:12;0.90;99.90
17807;DHT22;9027;48.938;9.182;2022-12-16T10:01:02;1.10;99.90
17807;DHT22;9027;48.938;9.182;2022-12-16T10:02:49;1.10;99.90
17807;DHT22;9027;48.938;9.182;2022-12-16T10:04:40;1.20;99.90
17807;DHT22;9027;48.938;9.182;2022-12-16T10:06:36;1.20;99.90
17807;DHT22;9027;48.938;9.182;2022-12-16T10:08:33;1.20;99.90
17807;DHT22;9027;48.938;9.182;2022-12-16T10:10:33;1.20;99.90
17807;DHT22;9027;48.938;9.182;2022-12-16T10:12:29;1.10;99.90
17807;DHT22;9027;48.938;9.182;2022-12-16T10:14:24;1.10;99.90
17807;DHT22;9027;48.938;9.182;2022-12-16T10:16:24;1.20;99.90
17807;DHT22;9027;48.938;9.182;2022-12-16T10:18:25;1.30;99.90
17807;DHT22;9027;48.938;9.182;2022-12-16T10:20:28;1.30;99.90
17807;DHT22;9027;48.938;9.182;2022-12-16T10:22:23;1.20;99.90
17807;DHT22;9027;48.938;9.182;2022-12-16T10:24:23;1.30;99.90
17807;DHT22;9027;48.938;9.182;2022-12-16T10:26:17;1.30;99.90
17807;DHT22;9027;48.938;9.182;2022-12-16T10:28:15;1.40;99.90
17807;DHT22;9027;48.938;9.182;2022-12-16T10:30:10;1.30;99.90
17807;DHT22;9027;48.938;9.182;2022-12-16T10:32:04;1.40;99.90
17807;DHT22;9027;48.938;9.182;2022-12-16T10:33:55;1.40;99.90
17807;DHT22;9027;48.938;9.182;2022-12-16T10:35:48;1.30;99.90
17807;DHT22;9027;48.938;9.182;2022-12-16T10:37:39;1.30;99.90
17807;DHT22;9027;48.938;9.182;2022-12-16T10:39:33;1.50;99.90
17807;DHT22;9027;48.938;9.182;2022-12-16T10:41:25;1.50;99.90
17807;DHT22;9027;48.938;9.182;2022-12-16T10:43:20;1.70;99.90
17807;DHT22;9027;48.938;9.182;2022-12-16T10:45:16;1.70;99.90
17807;DHT22;9027;48.938;9.182;2022-12-16T10:47:08;1.80;99.90
17807;DHT22;9027;48.938;9.182;2022-12-16T10:48:58;1.90;99.90
17807;DHT22;9027;48.938;9.182;2022-12-16T10:50:48;2.10;99.90
17807;DHT22;9027;48.938;9.182;2022-12-16T10:52:44;2.00;99.90
17807;DHT22;9027;48.938;9.182;2022-12-16T10:54:40;2.00;99.90
17807;DHT22;9027;48.938;9.182;2022-12-16T10:56:46;1.70;99.90
17807;DHT22;9027;48.938;9.182;2022-12-16T10:58:43;1.80;99.90
17807;DHT22;9027;48.938;9.182;2022-12-16T11:00:42;1.80;99.90
17807;DHT22;9027;48.938;9.182;2022-12-16T11:02:32;1.80;99.90
17807;DHT22;9027;48.938;9.182;2022-12-16T11:04:33;2.00;99.90
17807;DHT22;9027;48.938;9.182;2022-12-16T11:06:27;2.20;99.90
17807;DHT22;9027;48.938;9.182;2022-12-16T11:08:25;2.40;99.90
17807;DHT22;9027;48.938;9.182;2022-12-16T11:10:24;2.40;99.90
17807;DHT22;9027;48.938;9.182;2022-12-16T11:12:21;2.40;99.90
17807;DHT22;9027;48.938;9.182;2022-12-16T11:14:20;2.50;99.90
17807;DHT22;9027;48.938;9.182;2022-12-16T11:16:12;2.50;99.90
17807;DHT22;9027;48.938;9.182;2022-12-16T11:18:05;2.60;99.90
17807;DHT22;9027;48.938;9.182;2022-12-16T11:20:07;2.70;99.90
17807;DHT22;9027;48.938;9.182;2022-12-16T11:22:05;2.80;99.90
17807;DHT22;9027;48.938;9.182;2022-12-16T11:24:08;2.70;99.90
17807;DHT22;9027;48.938;9.182;2022-12-16T11:26:14;2.70;99.90